sensor_id;sensor_type;location;lat;lon;timestamp;P1;durP1;ratioP1;P2;durP2;ratioP2
66264;SDS011;53055;44.648;21.148;2023-02-13T00:00:53;286.77;;;222.23;;
66264;SDS011;53055;44.648;21.148;2023-02-13T00:03:19;215.35;;;165.93;;
66264;SDS011;53055;44.648;21.148;2023-02-13T00:05:45;202.45;;;157.20;;
66264;SDS011;53055;44.648;21.148;2023-02-13T00:08:11;206.93;;;155.73;;
66264;SDS011;53055;44.648;21.148;2023-02-13T00:10:37;315.33;;;255.88;;
66264;SDS011;53055;44.648;21.148;2023-02-13T00:13:03;233.68;;;182.20;;
66264;SDS011;53055;44.648;21.148;2023-02-13T00:15:29;288.58;;;224.75;;
66264;SDS011;53055;44.648;21.148;2023-02-13T00:17:55;270.88;;;211.23;;
66264;SDS011;53055;44.648;21.148;2023-02-13T00:20:22;245.02;;;188.82;;
66264;SDS011;53055;44.648;21.148;2023-02-13T00:22:48;204.23;;;153.52;;
66264;SDS011;53055;44.648;21.148;2023-02-13T00:25:14;266.75;;;212.00;;
66264;SDS011;53055;44.648;21.148;2023-02-13T00:27:40;228.57;;;173.73;;
66264;SDS011;53055;44.648;21.148;2023-02-13T00:30:06;346.13;;;266.35;;
66264;SDS011;53055;44.648;21.148;2023-02-13T00:32:32;250.57;;;189.57;;
66264;SDS011;53055;44.648;21.148;2023-02-13T00:34:58;295.83;;;227.10;;
66264;SDS011;53055;44.648;21.148;2023-02-13T00:37:24;317.38;;;240.40;;
66264;SDS011;53055;44.648;21.148;2023-02-13T00:39:51;259.83;;;203.55;;
66264;SDS011;53055;44.648;21.148;2023-02-13T00:42:17;310.95;;;239.50;;
66264;SDS011;53055;44.648;21.148;2023-02-13T00:44:44;252.43;;;198.30;;
66264;SDS011;53055;44.648;21.148;2023-02-13T00:47:10;299.77;;;239.27;;
66264;SDS011;53055;44.648;21.148;2023-02-13T00:49:38;345.13;;;264.83;;
66264;SDS011;53055;44.648;21.148;2023-02-13T00:52:04;381.95;;;289.83;;
66264;SDS011;53055;44.648;21.148;2023-02-13T00:54:30;360.25;;;278.40;;
66264;SDS011;53055;44.648;21.148;2023-02-13T00:56:57;300.02;;;228.30;;
66264;SDS011;53055;44.648;21.148;2023-02-13T00:59:23;267.25;;;205.90;;
66264;SDS011;53055;44.648;21.148;2023-02-13T01:01:49;312.20;;;243.90;;
66264;SDS011;53055;44.648;21.148;2023-02-13T01:04:15;335.55;;;271.00;;
66264;SDS011;53055;44.648;21.148;2023-02-13T01:06:41;273.80;;;209.55;;
66264;SDS011;53055;44.648;21.148;2023-02-13T01:09:07;280.83;;;215.27;;
66264;SDS011;53055;44.648;21.148;2023-02-13T01:11:33;291.70;;;222.50;;
66264;SDS011;53055;44.648;21.148;2023-02-13T01:13:59;255.05;;;198.48;;
66264;SDS011;53055;44.648;21.148;2023-02-13T01:16:25;266.35;;;207.85;;
66264;SDS011;53055;44.648;21.148;2023-02-13T01:18:51;248.30;;;188.88;;
66264;SDS011;53055;44.648;21.148;2023-02-13T01:21:18;271.60;;;208.48;;
66264;SDS011;53055;44.648;21.148;2023-02-13T01:23:45;269.15;;;216.80;;
66264;SDS011;53055;44.648;21.148;2023-02-13T01:26:14;247.18;;;193.70;;
66264;SDS011;53055;44.648;21.148;2023-02-13T01:28:41;254.15;;;198.80;;
66264;SDS011;53055;44.648;21.148;2023-02-13T01:31:07;279.23;;;221.98;;
66264;SDS011;53055;44.648;21.148;2023-02-13T01:33:33;264.58;;;210.82;;
66264;SDS011;53055;44.648;21.148;2023-02-13T01:36:04;252.75;;;200.15;;
66264;SDS011;53055;44.648;21.148;2023-02-13T01:38:30;240.35;;;192.45;;
66264;SDS011;53055;44.648;21.148;2023-02-13T01:40:56;253.32;;;202.77;;
66264;SDS011;53055;44.648;21.148;2023-02-13T01:43:22;234.63;;;182.65;;
66264;SDS011;53055;44.648;21.148;2023-02-13T01:45:50;211.05;;;167.00;;
66264;SDS011;53055;44.648;21.148;2023-02-13T01:48:18;226.43;;;181.18;;
66264;SDS011;53055;44.648;21.148;2023-02-13T01:53:35;214.80;;;170.68;;
66264;SDS011;53055;44.648;21.148;2023-02-13T01:56:10;198.75;;;160.27;;
66264;SDS011;53055;44.648;21.148;2023-02-13T01:58:37;187.98;;;144.15;;
66264;SDS011;53055;44.648;21.148;2023-02-13T02:01:05;163.00;;;131.85;;
66264;SDS011;53055;44.648;21.148;2023-02-13T02:03:41;174.40;;;140.48;;
66264;SDS011;53055;44.648;21.148;2023-02-13T02:06:09;172.80;;;136.35;;
66264;SDS011;53055;44.648;21.148;2023-02-13T02:08:36;146.38;;;117.25;;
66264;SDS011;53055;44.648;21.148;2023-02-13T02:11:08;156.82;;;126.13;;
66264;SDS011;53055;44.648;21.148;2023-02-13T02:13:36;153.32;;;124.22;;
66264;SDS011;53055;44.648;21.148;2023-02-13T02:16:02;152.05;;;126.25;;
66264;SDS011;53055;44.648;21.148;2023-02-13T02:18:28;197.38;;;158.75;;
66264;SDS011;53055;44.648;21.148;2023-02-13T02:29:39;130.75;;;107.68;;
66264;SDS011;53055;44.648;21.148;2023-02-13T02:44:27;126.95;;;99.05;;
66264;SDS011;53055;44.648;21.148;2023-02-13T02:49:41;119.13;;;93.70;;
66264;SDS011;53055;44.648;21.148;2023-02-13T02:55:07;123.25;;;96.40;;
66264;SDS011;53055;44.648;21.148;2023-02-13T02:57:44;119.40;;;92.45;;
66264;SDS011;53055;44.648;21.148;2023-02-13T03:00:30;117.05;;;93.28;;
66264;SDS011;53055;44.648;21.148;2023-02-13T03:03:17;110.40;;;88.78;;
66264;SDS011;53055;44.648;21.148;2023-02-13T03:06:03;113.88;;;90.35;;
66264;SDS011;53055;44.648;21.148;2023-02-13T03:08:36;113.03;;;91.45;;
66264;SDS011;53055;44.648;21.148;2023-02-13T03:11:21;105.30;;;83.30;;
66264;SDS011;53055;44.648;21.148;2023-02-13T03:14:06;106.57;;;88.05;;
66264;SDS011;53055;44.648;21.148;2023-02-13T03:16:34;98.80;;;82.13;;
66264;SDS011;53055;44.648;21.148;2023-02-13T03:24:53;112.32;;;91.38;;
66264;SDS011;53055;44.648;21.148;2023-02-13T03:30:20;91.78;;;73.32;;
66264;SDS011;53055;44.648;21.148;2023-02-13T03:38:10;94.03;;;75.50;;
66264;SDS011;53055;44.648;21.148;2023-02-13T03:40:41;97.13;;;81.57;;
66264;SDS011;53055;44.648;21.148;2023-02-13T03:43:28;86.20;;;71.55;;
66264;SDS011;53055;44.648;21.148;2023-02-13T03:45:57;92.38;;;73.60;;
66264;SDS011;53055;44.648;21.148;2023-02-13T03:48:29;90.22;;;70.20;;
66264;SDS011;53055;44.648;21.148;2023-02-13T03:51:18;90.03;;;70.20;;
66264;SDS011;53055;44.648;21.148;2023-02-13T03:53:45;90.18;;;71.00;;
66264;SDS011;53055;44.648;21.148;2023-02-13T03:56:13;88.20;;;70.13;;
66264;SDS011;53055;44.648;21.148;2023-02-13T03:58:59;88.70;;;70.15;;
66264;SDS011;53055;44.648;21.148;2023-02-13T04:01:40;87.80;;;69.75;;
66264;SDS011;53055;44.648;21.148;2023-02-13T04:07:03;86.82;;;71.13;;
66264;SDS011;53055;44.648;21.148;2023-02-13T04:09:30;89.78;;;71.78;;
66264;SDS011;53055;44.648;21.148;2023-02-13T04:14:24;100.85;;;78.72;;
66264;SDS011;53055;44.648;21.148;2023-02-13T04:16:58;95.05;;;75.40;;
66264;SDS011;53055;44.648;21.148;2023-02-13T04:19:27;91.97;;;73.32;;
66264;SDS011;53055;44.648;21.148;2023-02-13T04:21:54;92.25;;;70.50;;
66264;SDS011;53055;44.648;21.148;2023-02-13T04:24:21;89.78;;;71.22;;
66264;SDS011;53055;44.648;21.148;2023-02-13T04:26:47;89.13;;;71.07;;
66264;SDS011;53055;44.648;21.148;2023-02-13T04:29:13;91.32;;;71.38;;
66264;SDS011;53055;44.648;21.148;2023-02-13T04:31:39;91.68;;;71.88;;
66264;SDS011;53055;44.648;21.148;2023-02-13T04:34:05;91.22;;;70.25;;
66264;SDS011;53055;44.648;21.148;2023-02-13T04:36:31;90.47;;;72.72;;
66264;SDS011;53055;44.648;21.148;2023-02-13T04:38:57;89.07;;;69.18;;
66264;SDS011;53055;44.648;21.148;2023-02-13T04:41:23;85.85;;;67.70;;
66264;SDS011;53055;44.648;21.148;2023-02-13T04:43:49;84.10;;;68.63;;
66264;SDS011;53055;44.648;21.148;2023-02-13T04:46:16;86.45;;;68.78;;
66264;SDS011;53055;44.648;21.148;2023-02-13T04:48:42;97.35;;;79.03;;
66264;SDS011;53055;44.648;21.148;2023-02-13T04:51:08;105.85;;;82.68;;
66264;SDS011;53055;44.648;21.148;2023-02-13T04:53:34;104.75;;;82.32;;
66264;SDS011;53055;44.648;21.148;2023-02-13T04:56:01;104.78;;;80.43;;
66264;SDS011;53055;44.648;21.148;2023-02-13T04:58:27;112.65;;;86.50;;
66264;SDS011;53055;44.648;21.148;2023-02-13T05:00:53;115.22;;;89.13;;
66264;SDS011;53055;44.648;21.148;2023-02-13T05:03:19;120.80;;;96.00;;
66264;SDS011;53055;44.648;21.148;2023-02-13T05:05:45;137.02;;;106.38;;
66264;SDS011;53055;44.648;21.148;2023-02-13T05:08:11;135.23;;;109.57;;
66264;SDS011;53055;44.648;21.148;2023-02-13T05:10:37;138.50;;;106.43;;
66264;SDS011;53055;44.648;21.148;2023-02-13T05:13:03;141.32;;;111.32;;
66264;SDS011;53055;44.648;21.148;2023-02-13T05:15:29;136.30;;;105.07;;
66264;SDS011;53055;44.648;21.148;2023-02-13T05:17:55;134.85;;;103.05;;
66264;SDS011;53055;44.648;21.148;2023-02-13T05:20:21;125.88;;;96.82;;
66264;SDS011;53055;44.648;21.148;2023-02-13T05:22:48;114.32;;;90.65;;
66264;SDS011;53055;44.648;21.148;2023-02-13T05:25:34;121.50;;;96.22;;
66264;SDS011;53055;44.648;21.148;2023-02-13T05:28:00;110.10;;;85.43;;
66264;SDS011;53055;44.648;21.148;2023-02-13T05:30:26;111.80;;;89.68;;
66264;SDS011;53055;44.648;21.148;2023-02-13T05:32:52;114.43;;;92.30;;
66264;SDS011;53055;44.648;21.148;2023-02-13T05:35:19;148.23;;;115.70;;
66264;SDS011;53055;44.648;21.148;2023-02-13T05:37:46;150.02;;;118.28;;
66264;SDS011;53055;44.648;21.148;2023-02-13T05:40:12;131.63;;;105.10;;
66264;SDS011;53055;44.648;21.148;2023-02-13T05:42:39;119.60;;;95.95;;
66264;SDS011;53055;44.648;21.148;2023-02-13T05:45:05;115.63;;;90.45;;
66264;SDS011;53055;44.648;21.148;2023-02-13T05:47:31;125.18;;;97.65;;
66264;SDS011;53055;44.648;21.148;2023-02-13T05:49:57;124.85;;;97.35;;
66264;SDS011;53055;44.648;21.148;2023-02-13T05:52:23;135.32;;;106.53;;
66264;SDS011;53055;44.648;21.148;2023-02-13T05:54:49;140.20;;;109.50;;
66264;SDS011;53055;44.648;21.148;2023-02-13T05:57:15;147.82;;;114.32;;
66264;SDS011;53055;44.648;21.148;2023-02-13T05:59:41;150.88;;;116.07;;
66264;SDS011;53055;44.648;21.148;2023-02-13T06:02:08;144.65;;;112.88;;
66264;SDS011;53055;44.648;21.148;2023-02-13T06:04:34;138.20;;;108.85;;
66264;SDS011;53055;44.648;21.148;2023-02-13T06:07:00;165.18;;;127.70;;
66264;SDS011;53055;44.648;21.148;2023-02-13T06:09:27;136.05;;;108.10;;
66264;SDS011;53055;44.648;21.148;2023-02-13T06:11:53;147.85;;;112.90;;
66264;SDS011;53055;44.648;21.148;2023-02-13T06:14:19;126.43;;;100.82;;
66264;SDS011;53055;44.648;21.148;2023-02-13T06:16:45;136.88;;;107.65;;
66264;SDS011;53055;44.648;21.148;2023-02-13T06:19:11;121.72;;;97.90;;
66264;SDS011;53055;44.648;21.148;2023-02-13T06:21:37;130.93;;;105.55;;
66264;SDS011;53055;44.648;21.148;2023-02-13T06:24:03;113.78;;;90.85;;
66264;SDS011;53055;44.648;21.148;2023-02-13T06:26:30;115.68;;;91.78;;
66264;SDS011;53055;44.648;21.148;2023-02-13T06:28:56;110.40;;;88.05;;
66264;SDS011;53055;44.648;21.148;2023-02-13T06:31:22;105.30;;;85.15;;
66264;SDS011;53055;44.648;21.148;2023-02-13T06:33:48;110.88;;;87.72;;
66264;SDS011;53055;44.648;21.148;2023-02-13T06:36:14;123.88;;;98.88;;
66264;SDS011;53055;44.648;21.148;2023-02-13T06:38:40;131.07;;;102.43;;
66264;SDS011;53055;44.648;21.148;2023-02-13T06:41:07;138.40;;;111.40;;
66264;SDS011;53055;44.648;21.148;2023-02-13T06:43:33;125.93;;;100.93;;
66264;SDS011;53055;44.648;21.148;2023-02-13T06:46:03;126.57;;;106.72;;
66264;SDS011;53055;44.648;21.148;2023-02-13T06:48:29;118.28;;;97.22;;
66264;SDS011;53055;44.648;21.148;2023-02-13T06:50:55;115.53;;;93.82;;
66264;SDS011;53055;44.648;21.148;2023-02-13T06:53:21;117.18;;;95.28;;
66264;SDS011;53055;44.648;21.148;2023-02-13T06:55:52;116.07;;;89.07;;
66264;SDS011;53055;44.648;21.148;2023-02-13T06:58:19;114.90;;;89.68;;
66264;SDS011;53055;44.648;21.148;2023-02-13T07:00:45;118.63;;;91.70;;
66264;SDS011;53055;44.648;21.148;2023-02-13T07:03:11;124.03;;;92.80;;
66264;SDS011;53055;44.648;21.148;2023-02-13T07:05:41;123.32;;;96.68;;
66264;SDS011;53055;44.648;21.148;2023-02-13T07:08:07;123.93;;;99.43;;
66264;SDS011;53055;44.648;21.148;2023-02-13T07:10:35;119.53;;;95.55;;
66264;SDS011;53055;44.648;21.148;2023-02-13T07:13:02;121.80;;;96.18;;
66264;SDS011;53055;44.648;21.148;2023-02-13T07:15:28;114.63;;;91.63;;
66264;SDS011;53055;44.648;21.148;2023-02-13T07:17:57;119.25;;;94.63;;
66264;SDS011;53055;44.648;21.148;2023-02-13T07:20:24;120.18;;;98.63;;
66264;SDS011;53055;44.648;21.148;2023-02-13T07:22:51;114.55;;;95.28;;
66264;SDS011;53055;44.648;21.148;2023-02-13T07:25:17;106.97;;;88.35;;
66264;SDS011;53055;44.648;21.148;2023-02-13T07:27:43;105.25;;;88.45;;
66264;SDS011;53055;44.648;21.148;2023-02-13T07:30:10;97.43;;;78.85;;
66264;SDS011;53055;44.648;21.148;2023-02-13T07:32:36;94.70;;;76.60;;
66264;SDS011;53055;44.648;21.148;2023-02-13T07:35:02;87.75;;;71.82;;
66264;SDS011;53055;44.648;21.148;2023-02-13T07:37:29;86.13;;;71.88;;
66264;SDS011;53055;44.648;21.148;2023-02-13T07:39:55;86.95;;;72.28;;
66264;SDS011;53055;44.648;21.148;2023-02-13T07:42:21;86.80;;;71.30;;
66264;SDS011;53055;44.648;21.148;2023-02-13T07:44:47;78.93;;;63.58;;
66264;SDS011;53055;44.648;21.148;2023-02-13T07:47:13;71.97;;;59.78;;
66264;SDS011;53055;44.648;21.148;2023-02-13T07:49:39;80.78;;;64.20;;
66264;SDS011;53055;44.648;21.148;2023-02-13T07:52:06;74.07;;;60.53;;
66264;SDS011;53055;44.648;21.148;2023-02-13T07:54:32;77.85;;;61.70;;
66264;SDS011;53055;44.648;21.148;2023-02-13T07:56:58;75.63;;;61.05;;
66264;SDS011;53055;44.648;21.148;2023-02-13T07:59:24;76.50;;;60.97;;
66264;SDS011;53055;44.648;21.148;2023-02-13T08:01:50;73.05;;;59.28;;
66264;SDS011;53055;44.648;21.148;2023-02-13T08:04:16;76.20;;;61.50;;
66264;SDS011;53055;44.648;21.148;2023-02-13T08:06:42;75.80;;;62.33;;
66264;SDS011;53055;44.648;21.148;2023-02-13T08:09:16;76.43;;;62.05;;
66264;SDS011;53055;44.648;21.148;2023-02-13T08:12:01;72.20;;;60.47;;
66264;SDS011;53055;44.648;21.148;2023-02-13T08:14:27;76.32;;;60.88;;
66264;SDS011;53055;44.648;21.148;2023-02-13T08:16:53;80.28;;;63.00;;
66264;SDS011;53055;44.648;21.148;2023-02-13T08:19:19;76.00;;;60.78;;
66264;SDS011;53055;44.648;21.148;2023-02-13T08:21:45;74.07;;;60.05;;
66264;SDS011;53055;44.648;21.148;2023-02-13T08:24:12;74.93;;;63.10;;
66264;SDS011;53055;44.648;21.148;2023-02-13T08:26:38;77.07;;;62.03;;
66264;SDS011;53055;44.648;21.148;2023-02-13T08:29:04;74.40;;;61.95;;
66264;SDS011;53055;44.648;21.148;2023-02-13T08:31:30;80.47;;;62.70;;
66264;SDS011;53055;44.648;21.148;2023-02-13T08:33:57;79.85;;;64.32;;
66264;SDS011;53055;44.648;21.148;2023-02-13T08:36:23;76.13;;;62.65;;
66264;SDS011;53055;44.648;21.148;2023-02-13T08:38:49;77.55;;;63.90;;
66264;SDS011;53055;44.648;21.148;2023-02-13T08:41:15;73.65;;;59.65;;
66264;SDS011;53055;44.648;21.148;2023-02-13T08:43:43;72.13;;;60.75;;
66264;SDS011;53055;44.648;21.148;2023-02-13T08:46:09;74.47;;;60.47;;
66264;SDS011;53055;44.648;21.148;2023-02-13T08:48:35;68.10;;;59.35;;
66264;SDS011;53055;44.648;21.148;2023-02-13T08:51:09;68.82;;;57.25;;
66264;SDS011;53055;44.648;21.148;2023-02-13T08:53:35;69.80;;;56.60;;
66264;SDS011;53055;44.648;21.148;2023-02-13T08:56:01;68.70;;;57.65;;
66264;SDS011;53055;44.648;21.148;2023-02-13T08:58:27;67.68;;;56.25;;
66264;SDS011;53055;44.648;21.148;2023-02-13T09:00:54;73.90;;;59.03;;
66264;SDS011;53055;44.648;21.148;2023-02-13T09:03:20;67.18;;;56.00;;
66264;SDS011;53055;44.648;21.148;2023-02-13T09:05:46;63.10;;;54.55;;
66264;SDS011;53055;44.648;21.148;2023-02-13T09:08:12;66.55;;;55.92;;
66264;SDS011;53055;44.648;21.148;2023-02-13T09:10:38;65.25;;;55.10;;
66264;SDS011;53055;44.648;21.148;2023-02-13T09:13:05;65.13;;;53.83;;
66264;SDS011;53055;44.648;21.148;2023-02-13T09:15:31;62.47;;;52.20;;
66264;SDS011;53055;44.648;21.148;2023-02-13T09:17:58;57.25;;;49.33;;
66264;SDS011;53055;44.648;21.148;2023-02-13T09:20:24;58.60;;;47.72;;
66264;SDS011;53055;44.648;21.148;2023-02-13T09:22:50;58.53;;;50.08;;
66264;SDS011;53055;44.648;21.148;2023-02-13T09:25:16;58.22;;;48.85;;
66264;SDS011;53055;44.648;21.148;2023-02-13T09:27:44;58.63;;;48.60;;
66264;SDS011;53055;44.648;21.148;2023-02-13T09:30:10;61.78;;;49.38;;
66264;SDS011;53055;44.648;21.148;2023-02-13T09:32:40;56.92;;;49.08;;
66264;SDS011;53055;44.648;21.148;2023-02-13T09:35:06;56.35;;;46.55;;
66264;SDS011;53055;44.648;21.148;2023-02-13T09:37:32;57.08;;;49.10;;
66264;SDS011;53055;44.648;21.148;2023-02-13T09:39:58;55.47;;;49.03;;
66264;SDS011;53055;44.648;21.148;2023-02-13T09:42:28;57.17;;;47.70;;
66264;SDS011;53055;44.648;21.148;2023-02-13T09:44:57;52.97;;;46.17;;
66264;SDS011;53055;44.648;21.148;2023-02-13T09:47:28;54.80;;;45.15;;
66264;SDS011;53055;44.648;21.148;2023-02-13T09:49:57;48.72;;;42.97;;
66264;SDS011;53055;44.648;21.148;2023-02-13T09:52:26;53.38;;;46.05;;
66264;SDS011;53055;44.648;21.148;2023-02-13T09:54:53;55.13;;;47.60;;
66264;SDS011;53055;44.648;21.148;2023-02-13T09:57:24;54.22;;;46.42;;
66264;SDS011;53055;44.648;21.148;2023-02-13T10:00:27;55.90;;;46.75;;
66264;SDS011;53055;44.648;21.148;2023-02-13T10:14:02;50.78;;;44.53;;
66264;SDS011;53055;44.648;21.148;2023-02-13T10:21:09;51.50;;;44.70;;
66264;SDS011;53055;44.648;21.148;2023-02-13T10:23:43;51.25;;;45.60;;
66264;SDS011;53055;44.648;21.148;2023-02-13T10:26:21;50.03;;;42.80;;
66264;SDS011;53055;44.648;21.148;2023-02-13T10:28:48;48.63;;;43.28;;
66264;SDS011;53055;44.648;21.148;2023-02-13T10:31:36;50.83;;;45.08;;
66264;SDS011;53055;44.648;21.148;2023-02-13T10:34:03;50.30;;;44.75;;
66264;SDS011;53055;44.648;21.148;2023-02-13T10:36:32;51.72;;;44.88;;
66264;SDS011;53055;44.648;21.148;2023-02-13T10:39:04;50.42;;;44.90;;
66264;SDS011;53055;44.648;21.148;2023-02-13T10:41:44;48.47;;;43.17;;
66264;SDS011;53055;44.648;21.148;2023-02-13T10:51:44;51.42;;;45.33;;
66264;SDS011;53055;44.648;21.148;2023-02-13T11:01:48;49.28;;;43.15;;
66264;SDS011;53055;44.648;21.148;2023-02-13T11:04:17;49.42;;;42.90;;
66264;SDS011;53055;44.648;21.148;2023-02-13T11:07:02;48.35;;;42.08;;
66264;SDS011;53055;44.648;21.148;2023-02-13T11:09:32;46.90;;;38.78;;
66264;SDS011;53055;44.648;21.148;2023-02-13T11:12:07;47.58;;;41.17;;
66264;SDS011;53055;44.648;21.148;2023-02-13T11:14:54;44.13;;;39.13;;
66264;SDS011;53055;44.648;21.148;2023-02-13T11:17:21;45.40;;;39.10;;
66264;SDS011;53055;44.648;21.148;2023-02-13T11:19:49;43.65;;;38.75;;
66264;SDS011;53055;44.648;21.148;2023-02-13T11:22:35;43.78;;;38.38;;
66264;SDS011;53055;44.648;21.148;2023-02-13T11:25:45;40.17;;;35.78;;
66264;SDS011;53055;44.648;21.148;2023-02-13T11:28:16;41.15;;;34.80;;
66264;SDS011;53055;44.648;21.148;2023-02-13T11:30:41;42.20;;;35.85;;
66264;SDS011;53055;44.648;21.148;2023-02-13T11:33:21;41.42;;;35.47;;
66264;SDS011;53055;44.648;21.148;2023-02-13T11:35:48;64.68;;;54.05;;
66264;SDS011;53055;44.648;21.148;2023-02-13T11:40:41;37.20;;;31.58;;
66264;SDS011;53055;44.648;21.148;2023-02-13T11:43:27;34.75;;;29.92;;
66264;SDS011;53055;44.648;21.148;2023-02-13T11:46:06;37.25;;;33.17;;
66264;SDS011;53055;44.648;21.148;2023-02-13T11:48:33;37.20;;;32.78;;
66264;SDS011;53055;44.648;21.148;2023-02-13T11:51:01;33.00;;;29.48;;
66264;SDS011;53055;44.648;21.148;2023-02-13T11:53:31;36.85;;;31.83;;
66264;SDS011;53055;44.648;21.148;2023-02-13T11:56:14;36.92;;;32.67;;
66264;SDS011;53055;44.648;21.148;2023-02-13T11:58:41;31.45;;;26.67;;
66264;SDS011;53055;44.648;21.148;2023-02-13T12:03:34;30.63;;;26.98;;
66264;SDS011;53055;44.648;21.148;2023-02-13T12:08:26;33.58;;;26.48;;
66264;SDS011;53055;44.648;21.148;2023-02-13T12:10:53;33.47;;;28.70;;
66264;SDS011;53055;44.648;21.148;2023-02-13T12:13:20;32.75;;;27.63;;
66264;SDS011;53055;44.648;21.148;2023-02-13T12:15:49;37.92;;;32.78;;
66264;SDS011;53055;44.648;21.148;2023-02-13T12:18:29;33.85;;;29.80;;
66264;SDS011;53055;44.648;21.148;2023-02-13T12:29:07;26.30;;;23.42;;
66264;SDS011;53055;44.648;21.148;2023-02-13T12:31:39;23.33;;;19.20;;
66264;SDS011;53055;44.648;21.148;2023-02-13T12:34:13;24.98;;;20.80;;
66264;SDS011;53055;44.648;21.148;2023-02-13T12:39:25;22.10;;;18.45;;
66264;SDS011;53055;44.648;21.148;2023-02-13T12:47:41;21.73;;;17.42;;
66264;SDS011;53055;44.648;21.148;2023-02-13T13:01:18;32.55;;;25.13;;
66264;SDS011;53055;44.648;21.148;2023-02-13T13:08:08;28.75;;;23.77;;
66264;SDS011;53055;44.648;21.148;2023-02-13T13:21:31;21.63;;;18.73;;
66264;SDS011;53055;44.648;21.148;2023-02-13T13:26:55;26.05;;;23.38;;
66264;SDS011;53055;44.648;21.148;2023-02-13T13:29:23;26.08;;;23.10;;
66264;SDS011;53055;44.648;21.148;2023-02-13T13:31:58;23.75;;;19.77;;
66264;SDS011;53055;44.648;21.148;2023-02-13T13:34:26;24.63;;;20.92;;
66264;SDS011;53055;44.648;21.148;2023-02-13T13:36:58;39.45;;;35.00;;
66264;SDS011;53055;44.648;21.148;2023-02-13T13:42:51;34.15;;;25.80;;
66264;SDS011;53055;44.648;21.148;2023-02-13T13:45:03;22.45;;;20.05;;
66264;SDS011;53055;44.648;21.148;2023-02-13T13:50:18;27.42;;;24.63;;
66264;SDS011;53055;44.648;21.148;2023-02-13T14:03:34;30.60;;;27.23;;
66264;SDS011;53055;44.648;21.148;2023-02-13T14:06:07;38.13;;;34.28;;
66264;SDS011;53055;44.648;21.148;2023-02-13T14:11:03;23.63;;;21.08;;
66264;SDS011;53055;44.648;21.148;2023-02-13T14:13:33;19.98;;;17.88;;
66264;SDS011;53055;44.648;21.148;2023-02-13T14:16:00;24.98;;;22.10;;
66264;SDS011;53055;44.648;21.148;2023-02-13T14:18:26;21.65;;;19.45;;
66264;SDS011;53055;44.648;21.148;2023-02-13T14:23:36;23.58;;;21.05;;
66264;SDS011;53055;44.648;21.148;2023-02-13T14:28:42;21.63;;;19.42;;
66264;SDS011;53055;44.648;21.148;2023-02-13T14:31:34;24.92;;;22.33;;
66264;SDS011;53055;44.648;21.148;2023-02-13T14:34:08;24.52;;;21.92;;
66264;SDS011;53055;44.648;21.148;2023-02-13T14:36:47;25.17;;;22.67;;
66264;SDS011;53055;44.648;21.148;2023-02-13T14:39:30;24.58;;;22.08;;
66264;SDS011;53055;44.648;21.148;2023-02-13T14:41:58;30.65;;;27.65;;
66264;SDS011;53055;44.648;21.148;2023-02-13T14:49:41;42.50;;;37.88;;
66264;SDS011;53055;44.648;21.148;2023-02-13T14:52:16;38.75;;;34.17;;
66264;SDS011;53055;44.648;21.148;2023-02-13T14:54:44;44.75;;;38.70;;
66264;SDS011;53055;44.648;21.148;2023-02-13T15:02:40;32.40;;;29.00;;
66264;SDS011;53055;44.648;21.148;2023-02-13T15:05:12;29.63;;;26.63;;
66264;SDS011;53055;44.648;21.148;2023-02-13T15:07:41;32.58;;;29.17;;
66264;SDS011;53055;44.648;21.148;2023-02-13T15:12:59;46.55;;;40.50;;
66264;SDS011;53055;44.648;21.148;2023-02-13T15:15:30;36.60;;;32.80;;
66264;SDS011;53055;44.648;21.148;2023-02-13T15:18:09;65.50;;;56.00;;
66264;SDS011;53055;44.648;21.148;2023-02-13T15:20:36;139.32;;;124.50;;
66264;SDS011;53055;44.648;21.148;2023-02-13T15:23:04;387.15;;;350.05;;
66264;SDS011;53055;44.648;21.148;2023-02-13T15:25:37;54.25;;;48.40;;
66264;SDS011;53055;44.648;21.148;2023-02-13T15:28:07;44.20;;;40.10;;
66264;SDS011;53055;44.648;21.148;2023-02-13T15:30:51;30.52;;;27.52;;
66264;SDS011;53055;44.648;21.148;2023-02-13T15:33:18;29.63;;;26.30;;
66264;SDS011;53055;44.648;21.148;2023-02-13T15:35:44;30.40;;;27.17;;
66264;SDS011;53055;44.648;21.148;2023-02-13T15:40:43;30.15;;;27.05;;
66264;SDS011;53055;44.648;21.148;2023-02-13T15:43:52;27.90;;;25.00;;
66264;SDS011;53055;44.648;21.148;2023-02-13T15:46:00;29.73;;;26.63;;
66264;SDS011;53055;44.648;21.148;2023-02-13T15:48:27;33.03;;;29.35;;
66264;SDS011;53055;44.648;21.148;2023-02-13T15:50:54;33.50;;;29.90;;
66264;SDS011;53055;44.648;21.148;2023-02-13T15:53:20;41.05;;;36.63;;
66264;SDS011;53055;44.648;21.148;2023-02-13T15:55:57;46.75;;;41.70;;
66264;SDS011;53055;44.648;21.148;2023-02-13T15:58:24;47.10;;;42.10;;
66264;SDS011;53055;44.648;21.148;2023-02-13T16:00:53;37.92;;;34.00;;
66264;SDS011;53055;44.648;21.148;2023-02-13T16:03:20;52.40;;;46.67;;
66264;SDS011;53055;44.648;21.148;2023-02-13T16:05:47;60.08;;;52.75;;
66264;SDS011;53055;44.648;21.148;2023-02-13T16:16:26;77.90;;;69.18;;
66264;SDS011;53055;44.648;21.148;2023-02-13T16:18:52;81.07;;;69.78;;
66264;SDS011;53055;44.648;21.148;2023-02-13T16:21:25;79.15;;;66.15;;
66264;SDS011;53055;44.648;21.148;2023-02-13T16:23:55;88.57;;;70.80;;
66264;SDS011;53055;44.648;21.148;2023-02-13T16:26:22;82.80;;;72.13;;
66264;SDS011;53055;44.648;21.148;2023-02-13T16:28:48;81.50;;;69.97;;
66264;SDS011;53055;44.648;21.148;2023-02-13T16:31:15;59.88;;;53.50;;
66264;SDS011;53055;44.648;21.148;2023-02-13T16:33:43;59.03;;;52.58;;
66264;SDS011;53055;44.648;21.148;2023-02-13T16:38:39;58.30;;;50.75;;
66264;SDS011;53055;44.648;21.148;2023-02-13T16:41:26;56.95;;;50.55;;
66264;SDS011;53055;44.648;21.148;2023-02-13T16:43:55;60.50;;;53.90;;
66264;SDS011;53055;44.648;21.148;2023-02-13T16:53:59;192.30;;;134.32;;
66264;SDS011;53055;44.648;21.148;2023-02-13T16:56:26;160.55;;;118.43;;
66264;SDS011;53055;44.648;21.148;2023-02-13T17:01:37;106.88;;;83.90;;
66264;SDS011;53055;44.648;21.148;2023-02-13T17:04:09;114.82;;;91.18;;
66264;SDS011;53055;44.648;21.148;2023-02-13T17:06:40;168.15;;;126.20;;
66264;SDS011;53055;44.648;21.148;2023-02-13T17:09:06;163.45;;;126.68;;
66264;SDS011;53055;44.648;21.148;2023-02-13T17:11:32;166.02;;;128.25;;
66264;SDS011;53055;44.648;21.148;2023-02-13T17:13:58;130.90;;;103.70;;
66264;SDS011;53055;44.648;21.148;2023-02-13T17:16:24;106.38;;;88.93;;
66264;SDS011;53055;44.648;21.148;2023-02-13T17:18:50;83.38;;;66.85;;
66264;SDS011;53055;44.648;21.148;2023-02-13T17:21:16;78.05;;;62.72;;
66264;SDS011;53055;44.648;21.148;2023-02-13T17:23:42;95.75;;;76.80;;
66264;SDS011;53055;44.648;21.148;2023-02-13T17:26:08;58.67;;;48.30;;